sensor_id;sensor_type;location;lat;lon;timestamp;temperature;humidity
3876;DHT22;1953;51.222;6.624;2022-11-04T00:03:01;12.40;1.00
3876;DHT22;1953;51.222;6.624;2022-11-04T00:08:13;12.30;1.00
3876;DHT22;1953;51.222;6.624;2022-11-04T00:13:04;12.20;1.00
3876;DHT22;1953;51.222;6.624;2022-11-04T00:17:47;12.20;1.00
3876;DHT22;1953;51.222;6.624;2022-11-04T00:22:29;12.20;1.00
3876;DHT22;1953;51.222;6.624;2022-11-04T00:27:31;12.20;1.00
3876;DHT22;1953;51.222;6.624;2022-11-04T00:32:31;12.20;1.00
3876;DHT22;1953;51.222;6.624;2022-11-04T00:37:30;12.20;1.00
3876;DHT22;1953;51.222;6.624;2022-11-04T00:42:12;12.20;1.00
3876;DHT22;1953;51.222;6.624;2022-11-04T00:46:56;12.20;1.00
3876;DHT22;1953;51.222;6.624;2022-11-04T00:51:39;12.20;1.00
3876;DHT22;1953;51.222;6.624;2022-11-04T00:56:21;12.10;1.00
3876;DHT22;1953;51.222;6.624;2022-11-04T01:01:07;12.10;1.00
3876;DHT22;1953;51.222;6.624;2022-11-04T01:05:51;12.10;1.00
3876;DHT22;1953;51.222;6.624;2022-11-04T01:10:34;12.10;1.00
3876;DHT22;1953;51.222;6.624;2022-11-04T01:15:24;12.10;1.00
3876;DHT22;1953;51.222;6.624;2022-11-04T01:20:07;12.10;1.00
3876;DHT22;1953;51.222;6.624;2022-11-04T01:24:51;12.00;1.00
3876;DHT22;1953;51.222;6.624;2022-11-04T01:29:34;12.10;1.00
3876;DHT22;1953;51.222;6.624;2022-11-04T01:34:16;12.10;1.00
3876;DHT22;1953;51.222;6.624;2022-11-04T01:38:58;12.00;1.00
3876;DHT22;1953;51.222;6.624;2022-11-04T01:43:44;12.00;1.00
3876;DHT22;1953;51.222;6.624;2022-11-04T01:48:30;11.90;1.00
3876;DHT22;1953;51.222;6.624;2022-11-04T01:53:16;11.90;1.00
3876;DHT22;1953;51.222;6.624;2022-11-04T01:58:03;11.90;1.00
3876;DHT22;1953;51.222;6.624;2022-11-04T02:02:55;11.80;1.00
3876;DHT22;1953;51.222;6.624;2022-11-04T02:07:40;11.70;1.00
3876;DHT22;1953;51.222;6.624;2022-11-04T02:12:22;11.60;1.00
3876;DHT22;1953;51.222;6.624;2022-11-04T02:17:32;11.60;1.00
3876;DHT22;1953;51.222;6.624;2022-11-04T02:22:51;11.50;1.00
3876;DHT22;1953;51.222;6.624;2022-11-04T02:27:52;11.50;1.00
3876;DHT22;1953;51.222;6.624;2022-11-04T02:32:56;11.50;1.00
3876;DHT22;1953;51.222;6.624;2022-11-04T02:37:46;11.40;1.00
3876;DHT22;1953;51.222;6.624;2022-11-04T02:42:38;11.40;1.00
3876;DHT22;1953;51.222;6.624;2022-11-04T02:47:27;11.30;1.00
3876;DHT22;1953;51.222;6.624;2022-11-04T02:52:17;11.30;1.00
3876;DHT22;1953;51.222;6.624;2022-11-04T02:57:02;11.30;1.00
3876;DHT22;1953;51.222;6.624;2022-11-04T03:01:47;11.20;1.00
3876;DHT22;1953;51.222;6.624;2022-11-04T03:06:31;11.10;1.00
3876;DHT22;1953;51.222;6.624;2022-11-04T03:11:18;11.10;1.00
3876;DHT22;1953;51.222;6.624;2022-11-04T03:16:06;11.10;1.00
3876;DHT22;1953;51.222;6.624;2022-11-04T03:20:52;11.10;1.00
3876;DHT22;1953;51.222;6.624;2022-11-04T03:25:40;11.10;1.00
3876;DHT22;1953;51.222;6.624;2022-11-04T03:30:31;11.00;1.00
3876;DHT22;1953;51.222;6.624;2022-11-04T03:35:18;10.90;1.00
3876;DHT22;1953;51.222;6.624;2022-11-04T03:40:01;10.80;1.00
3876;DHT22;1953;51.222;6.624;2022-11-04T03:44:45;10.80;1.00
3876;DHT22;1953;51.222;6.624;2022-11-04T03:49:30;10.80;1.00
3876;DHT22;1953;51.222;6.624;2022-11-04T03:54:13;10.80;1.00
3876;DHT22;1953;51.222;6.624;2022-11-04T03:59:06;10.80;1.00
3876;DHT22;1953;51.222;6.624;2022-11-04T04:03:56;10.80;1.00
3876;DHT22;1953;51.222;6.624;2022-11-04T04:08:44;10.60;1.00
3876;DHT22;1953;51.222;6.624;2022-11-04T04:13:36;10.30;1.00
3876;DHT22;1953;51.222;6.624;2022-11-04T04:18:25;10.50;1.00
3876;DHT22;1953;51.222;6.624;2022-11-04T04:23:14;10.50;1.00
3876;DHT22;1953;51.222;6.624;2022-11-04T04:28:17;10.50;1.00
3876;DHT22;1953;51.222;6.624;2022-11-04T04:33:04;10.50;1.00
3876;DHT22;1953;51.222;6.624;2022-11-04T04:37:48;10.50;1.00
3876;DHT22;1953;51.222;6.624;2022-11-04T04:42:31;10.50;1.00
3876;DHT22;1953;51.222;6.624;2022-11-04T04:47:41;10.60;1.00
3876;DHT22;1953;51.222;6.624;2022-11-04T04:52:26;10.50;1.00
3876;DHT22;1953;51.222;6.624;2022-11-04T04:57:10;10.40;1.00
3876;DHT22;1953;51.222;6.624;2022-11-04T05:01:52;10.50;1.00
3876;DHT22;1953;51.222;6.624;2022-11-04T05:06:36;10.50;1.00
3876;DHT22;1953;51.222;6.624;2022-11-04T05:11:18;10.50;1.00
3876;DHT22;1953;51.222;6.624;2022-11-04T05:16:03;10.50;1.00
3876;DHT22;1953;51.222;6.624;2022-11-04T05:20:46;10.50;1.00
3876;DHT22;1953;51.222;6.624;2022-11-04T05:25:30;10.60;1.00
3876;DHT22;1953;51.222;6.624;2022-11-04T05:30:12;10.60;1.00
3876;DHT22;1953;51.222;6.624;2022-11-04T05:34:55;10.60;1.00
3876;DHT22;1953;51.222;6.624;2022-11-04T05:39:37;10.50;1.00
3876;DHT22;1953;51.222;6.624;2022-11-04T05:44:21;10.50;1.00
3876;DHT22;1953;51.222;6.624;2022-11-04T05:49:04;10.50;1.00
3876;DHT22;1953;51.222;6.624;2022-11-04T05:53:46;10.50;1.00
3876;DHT22;1953;51.222;6.624;2022-11-04T05:58:29;10.40;1.00
3876;DHT22;1953;51.222;6.624;2022-11-04T06:03:12;10.30;1.00
3876;DHT22;1953;51.222;6.624;2022-11-04T06:07:55;10.30;1.00
3876;DHT22;1953;51.222;6.624;2022-11-04T06:12:38;10.30;1.00
3876;DHT22;1953;51.222;6.624;2022-11-04T06:17:21;10.20;1.00
3876;DHT22;1953;51.222;6.624;2022-11-04T06:22:05;10.10;1.00
3876;DHT22;1953;51.222;6.624;2022-11-04T06:26:47;10.10;1.00
3876;DHT22;1953;51.222;6.624;2022-11-04T06:31:30;10.10;1.00
3876;DHT22;1953;51.222;6.624;2022-11-04T06:36:13;10.10;1.00
3876;DHT22;1953;51.222;6.624;2022-11-04T06:40:57;10.00;1.00
3876;DHT22;1953;51.222;6.624;2022-11-04T06:45:40;9.90;1.00
3876;DHT22;1953;51.222;6.624;2022-11-04T06:50:22;9.90;1.00
3876;DHT22;1953;51.222;6.624;2022-11-04T06:55:06;9.90;1.00
3876;DHT22;1953;51.222;6.624;2022-11-04T06:59:50;9.90;1.00
3876;DHT22;1953;51.222;6.624;2022-11-04T07:04:32;9.90;1.00
3876;DHT22;1953;51.222;6.624;2022-11-04T07:09:15;10.00;1.00
3876;DHT22;1953;51.222;6.624;2022-11-04T07:13:57;10.10;1.00
3876;DHT22;1953;51.222;6.624;2022-11-04T07:18:41;10.20;1.00
3876;DHT22;1953;51.222;6.624;2022-11-04T07:23:24;10.30;1.00
3876;DHT22;1953;51.222;6.624;2022-11-04T07:28:06;10.50;1.00
3876;DHT22;1953;51.222;6.624;2022-11-04T07:32:49;10.50;1.00
3876;DHT22;1953;51.222;6.624;2022-11-04T07:37:33;10.60;1.00
3876;DHT22;1953;51.222;6.624;2022-11-04T07:42:15;10.80;1.00
3876;DHT22;1953;51.222;6.624;2022-11-04T07:46:57;10.90;1.00
3876;DHT22;1953;51.222;6.624;2022-11-04T07:51:40;11.00;1.00
3876;DHT22;1953;51.222;6.624;2022-11-04T07:56:24;11.10;1.00
3876;DHT22;1953;51.222;6.624;2022-11-04T08:01:08;11.10;1.00
3876;DHT22;1953;51.222;6.624;2022-11-04T08:05:54;11.10;1.00
3876;DHT22;1953;51.222;6.624;2022-11-04T08:10:37;11.10;1.00
3876;DHT22;1953;51.222;6.624;2022-11-04T08:15:21;11.10;1.00
3876;DHT22;1953;51.222;6.624;2022-11-04T08:20:04;11.10;1.00
3876;DHT22;1953;51.222;6.624;2022-11-04T08:24:47;11.20;1.00
3876;DHT22;1953;51.222;6.624;2022-11-04T08:29:29;11.30;1.00
3876;DHT22;1953;51.222;6.624;2022-11-04T08:34:13;11.30;1.00
3876;DHT22;1953;51.222;6.624;2022-11-04T08:38:58;11.30;1.00
3876;DHT22;1953;51.222;6.624;2022-11-04T08:43:41;11.40;1.00
3876;DHT22;1953;51.222;6.624;2022-11-04T08:48:23;11.60;1.00
3876;DHT22;1953;51.222;6.624;2022-11-04T08:53:07;11.60;1.00
3876;DHT22;1953;51.222;6.624;2022-11-04T08:57:50;11.50;1.00
3876;DHT22;1953;51.222;6.624;2022-11-04T09:02:34;11.70;1.00
3876;DHT22;1953;51.222;6.624;2022-11-04T09:07:16;11.80;1.00
3876;DHT22;1953;51.222;6.624;2022-11-04T09:12:00;12.00;1.00
3876;DHT22;1953;51.222;6.624;2022-11-04T09:16:43;12.20;1.00
3876;DHT22;1953;51.222;6.624;2022-11-04T09:21:26;12.20;1.00
3876;DHT22;1953;51.222;6.624;2022-11-04T09:26:11;12.30;1.00
3876;DHT22;1953;51.222;6.624;2022-11-04T09:30:55;12.40;1.00
3876;DHT22;1953;51.222;6.624;2022-11-04T09:35:38;12.60;1.00
3876;DHT22;1953;51.222;6.624;2022-11-04T09:40:22;12.60;1.00
3876;DHT22;1953;51.222;6.624;2022-11-04T09:45:10;12.80;1.00
3876;DHT22;1953;51.222;6.624;2022-11-04T09:49:55;13.00;1.00
3876;DHT22;1953;51.222;6.624;2022-11-04T09:54:42;13.10;1.00
3876;DHT22;1953;51.222;6.624;2022-11-04T09:59:28;13.10;1.00
3876;DHT22;1953;51.222;6.624;2022-11-04T10:04:18;13.10;1.00
3876;DHT22;1953;51.222;6.624;2022-11-04T10:09:16;13.30;1.00
3876;DHT22;1953;51.222;6.624;2022-11-04T10:14:13;13.40;1.00
3876;DHT22;1953;51.222;6.624;2022-11-04T10:19:10;13.60;1.00
3876;DHT22;1953;51.222;6.624;2022-11-04T10:24:05;13.90;1.00
3876;DHT22;1953;51.222;6.624;2022-11-04T10:28:54;14.10;1.00
3876;DHT22;1953;51.222;6.624;2022-11-04T10:33:41;14.40;1.00
3876;DHT22;1953;51.222;6.624;2022-11-04T10:38:31;14.60;1.00
3876;DHT22;1953;51.222;6.624;2022-11-04T10:43:18;14.70;1.00
3876;DHT22;1953;51.222;6.624;2022-11-04T10:48:09;14.70;1.00
3876;DHT22;1953;51.222;6.624;2022-11-04T10:53:07;14.70;1.00
3876;DHT22;1953;51.222;6.624;2022-11-04T10:57:53;14.70;1.00
3876;DHT22;1953;51.222;6.624;2022-11-04T11:02:44;14.60;1.00
3876;DHT22;1953;51.222;6.624;2022-11-04T11:07:35;14.50;1.00
3876;DHT22;1953;51.222;6.624;2022-11-04T11:12:20;14.50;1.00
3876;DHT22;1953;51.222;6.624;2022-11-04T11:17:18;14.50;1.00
3876;DHT22;1953;51.222;6.624;2022-11-04T11:22:01;14.40;1.00
3876;DHT22;1953;51.222;6.624;2022-11-04T11:26:45;14.20;1.00
3876;DHT22;1953;51.222;6.624;2022-11-04T11:31:34;14.20;1.00
3876;DHT22;1953;51.222;6.624;2022-11-04T11:36:26;14.20;1.00
3876;DHT22;1953;51.222;6.624;2022-11-04T11:41:11;13.60;1.00
3876;DHT22;1953;51.222;6.624;2022-11-04T11:45:55;14.10;1.00
3876;DHT22;1953;51.222;6.624;2022-11-04T11:50:53;14.00;1.00
3876;DHT22;1953;51.222;6.624;2022-11-04T11:55:38;14.10;1.00
3876;DHT22;1953;51.222;6.624;2022-11-04T12:00:23;14.00;1.00
3876;DHT22;1953;51.222;6.624;2022-11-04T12:09:24;14.00;1.00
3876;DHT22;1953;51.222;6.624;2022-11-04T12:14:14;14.10;1.00
3876;DHT22;1953;51.222;6.624;2022-11-04T12:19:08;14.30;1.00
3876;DHT22;1953;51.222;6.624;2022-11-04T12:23:56;14.40;1.00
3876;DHT22;1953;51.222;6.624;2022-11-04T12:28:52;14.40;1.00
3876;DHT22;1953;51.222;6.624;2022-11-04T12:33:41;14.50;1.00
3876;DHT22;1953;51.222;6.624;2022-11-04T12:38:41;14.50;1.00
3876;DHT22;1953;51.222;6.624;2022-11-04T12:43:35;14.60;1.00
3876;DHT22;1953;51.222;6.624;2022-11-04T12:48:34;14.80;1.00
3876;DHT22;1953;51.222;6.624;2022-11-04T12:59:07;15.50;1.00
3876;DHT22;1953;51.222;6.624;2022-11-04T13:03:58;15.50;1.00
3876;DHT22;1953;51.222;6.624;2022-11-04T13:08:47;15.40;1.00
3876;DHT22;1953;51.222;6.624;2022-11-04T13:13:33;15.30;1.00
3876;DHT22;1953;51.222;6.624;2022-11-04T13:18:17;15.40;1.00
3876;DHT22;1953;51.222;6.624;2022-11-04T13:23:05;15.60;1.00
3876;DHT22;1953;51.222;6.624;2022-11-04T13:27:50;15.40;1.00
3876;DHT22;1953;51.222;6.624;2022-11-04T13:32:37;15.40;1.00
3876;DHT22;1953;51.222;6.624;2022-11-04T13:37:25;15.40;1.00
3876;DHT22;1953;51.222;6.624;2022-11-04T13:47:23;15.20;1.00
3876;DHT22;1953;51.222;6.624;2022-11-04T13:52:08;15.10;1.00
3876;DHT22;1953;51.222;6.624;2022-11-04T13:57:03;15.10;1.00
3876;DHT22;1953;51.222;6.624;2022-11-04T14:01:48;15.10;1.00
3876;DHT22;1953;51.222;6.624;2022-11-04T14:06:48;15.00;1.00
3876;DHT22;1953;51.222;6.624;2022-11-04T14:16:54;14.90;1.00
3876;DHT22;1953;51.222;6.624;2022-11-04T14:22:03;14.70;1.00
3876;DHT22;1953;51.222;6.624;2022-11-04T14:26:46;14.70;1.00
3876;DHT22;1953;51.222;6.624;2022-11-04T14:31:35;14.60;1.00
3876;DHT22;1953;51.222;6.624;2022-11-04T14:36:40;14.80;1.00
3876;DHT22;1953;51.222;6.624;2022-11-04T14:41:31;15.10;1.00
3876;DHT22;1953;51.222;6.624;2022-11-04T14:46:24;15.20;1.00
3876;DHT22;1953;51.222;6.624;2022-11-04T14:51:20;15.10;1.00
3876;DHT22;1953;51.222;6.624;2022-11-04T14:56:14;15.10;1.00
3876;DHT22;1953;51.222;6.624;2022-11-04T15:00:59;15.10;1.00
3876;DHT22;1953;51.222;6.624;2022-11-04T15:05:47;14.90;1.00
3876;DHT22;1953;51.222;6.624;2022-11-04T15:10:29;14.80;1.00
3876;DHT22;1953;51.222;6.624;2022-11-04T15:15:34;14.60;1.00
3876;DHT22;1953;51.222;6.624;2022-11-04T15:20:23;14.60;1.00
3876;DHT22;1953;51.222;6.624;2022-11-04T15:25:09;14.50;1.00
3876;DHT22;1953;51.222;6.624;2022-11-04T15:29:53;14.30;1.00
3876;DHT22;1953;51.222;6.624;2022-11-04T15:34:37;14.20;1.00
3876;DHT22;1953;51.222;6.624;2022-11-04T15:39:21;14.20;1.00
3876;DHT22;1953;51.222;6.624;2022-11-04T15:44:06;14.20;1.00
3876;DHT22;1953;51.222;6.624;2022-11-04T15:49:03;14.00;1.00
3876;DHT22;1953;51.222;6.624;2022-11-04T15:53:50;13.90;1.00
3876;DHT22;1953;51.222;6.624;2022-11-04T15:58:33;13.80;1.00
3876;DHT22;1953;51.222;6.624;2022-11-04T16:03:17;13.80;1.00
3876;DHT22;1953;51.222;6.624;2022-11-04T16:08:17;13.90;1.00
3876;DHT22;1953;51.222;6.624;2022-11-04T16:13:19;13.80;1.00
3876;DHT22;1953;51.222;6.624;2022-11-04T16:18:03;13.70;1.00
3876;DHT22;1953;51.222;6.624;2022-11-04T16:22:46;13.60;1.00
3876;DHT22;1953;51.222;6.624;2022-11-04T16:27:31;13.50;1.00
3876;DHT22;1953;51.222;6.624;2022-11-04T16:32:17;13.50;1.00
3876;DHT22;1953;51.222;6.624;2022-11-04T16:37:00;13.50;1.00
3876;DHT22;1953;51.222;6.624;2022-11-04T16:41:43;13.40;1.00
3876;DHT22;1953;51.222;6.624;2022-11-04T16:46:25;13.30;1.00
3876;DHT22;1953;51.222;6.624;2022-11-04T16:51:14;13.30;1.00
3876;DHT22;1953;51.222;6.624;2022-11-04T16:55:57;13.30;1.00
3876;DHT22;1953;51.222;6.624;2022-11-04T17:00:40;13.20;1.00
3876;DHT22;1953;51.222;6.624;2022-11-04T17:05:23;13.20;1.00
3876;DHT22;1953;51.222;6.624;2022-11-04T17:10:13;13.10;1.00
3876;DHT22;1953;51.222;6.624;2022-11-04T17:14:57;13.10;1.00
3876;DHT22;1953;51.222;6.624;2022-11-04T17:19:39;13.10;1.00
3876;DHT22;1953;51.222;6.624;2022-11-04T17:24:22;13.00;1.00
3876;DHT22;1953;51.222;6.624;2022-11-04T17:29:05;13.00;1.00
3876;DHT22;1953;51.222;6.624;2022-11-04T17:33:48;13.00;1.00
3876;DHT22;1953;51.222;6.624;2022-11-04T17:38:30;12.20;1.00
3876;DHT22;1953;51.222;6.624;2022-11-04T17:43:13;12.90;1.00
3876;DHT22;1953;51.222;6.624;2022-11-04T17:48:14;12.90;1.00
3876;DHT22;1953;51.222;6.624;2022-11-04T17:52:56;12.90;1.00
3876;DHT22;1953;51.222;6.624;2022-11-04T17:57:39;12.90;1.00
3876;DHT22;1953;51.222;6.624;2022-11-04T18:02:22;12.90;1.00
3876;DHT22;1953;51.222;6.624;2022-11-04T18:07:05;12.90;1.00
3876;DHT22;1953;51.222;6.624;2022-11-04T18:11:48;12.90;1.00
3876;DHT22;1953;51.222;6.624;2022-11-04T18:16:49;12.90;1.00
3876;DHT22;1953;51.222;6.624;2022-11-04T18:21:31;12.90;1.00
3876;DHT22;1953;51.222;6.624;2022-11-04T18:26:15;12.90;1.00
3876;DHT22;1953;51.222;6.624;2022-11-04T18:30:59;12.70;1.00
3876;DHT22;1953;51.222;6.624;2022-11-04T18:35:41;12.70;1.00
3876;DHT22;1953;51.222;6.624;2022-11-04T18:40:23;12.70;1.00
3876;DHT22;1953;51.222;6.624;2022-11-04T18:45:09;12.60;1.00
3876;DHT22;1953;51.222;6.624;2022-11-04T18:49:51;12.60;1.00
3876;DHT22;1953;51.222;6.624;2022-11-04T18:54:34;12.40;1.00
3876;DHT22;1953;51.222;6.624;2022-11-04T18:59:16;12.40;1.00
3876;DHT22;1953;51.222;6.624;2022-11-04T19:04:00;12.40;1.00
3876;DHT22;1953;51.222;6.624;2022-11-04T19:08:43;12.50;1.00
3876;DHT22;1953;51.222;6.624;2022-11-04T19:13:25;12.40;1.00
3876;DHT22;1953;51.222;6.624;2022-11-04T19:18:08;12.30;1.00
3876;DHT22;1953;51.222;6.624;2022-11-04T19:22:51;12.20;1.00
3876;DHT22;1953;51.222;6.624;2022-11-04T19:27:34;12.20;1.00
3876;DHT22;1953;51.222;6.624;2022-11-04T19:32:17;12.30;1.00
3876;DHT22;1953;51.222;6.624;2022-11-04T19:36:59;12.30;1.00
3876;DHT22;1953;51.222;6.624;2022-11-04T19:41:43;12.30;1.00
3876;DHT22;1953;51.222;6.624;2022-11-04T19:46:43;12.30;1.00
3876;DHT22;1953;51.222;6.624;2022-11-04T19:51:27;12.20;1.00
3876;DHT22;1953;51.222;6.624;2022-11-04T19:56:12;12.20;1.00
3876;DHT22;1953;51.222;6.624;2022-11-04T20:01:02;12.20;1.00
3876;DHT22;1953;51.222;6.624;2022-11-04T20:05:45;12.30;1.00
3876;DHT22;1953;51.222;6.624;2022-11-04T20:10:27;12.20;1.00
3876;DHT22;1953;51.222;6.624;2022-11-04T20:15:10;12.20;1.00
3876;DHT22;1953;51.222;6.624;2022-11-04T20:19:53;12.20;1.00
3876;DHT22;1953;51.222;6.624;2022-11-04T20:24:36;12.20;1.00
3876;DHT22;1953;51.222;6.624;2022-11-04T20:29:18;12.20;1.00
3876;DHT22;1953;51.222;6.624;2022-11-04T20:34:02;12.20;1.00
3876;DHT22;1953;51.222;6.624;2022-11-04T20:38:47;12.10;1.00
3876;DHT22;1953;51.222;6.624;2022-11-04T20:43:31;12.10;1.00
3876;DHT22;1953;51.222;6.624;2022-11-04T20:48:14;12.00;1.00
3876;DHT22;1953;51.222;6.624;2022-11-04T20:52:56;12.00;1.00
3876;DHT22;1953;51.222;6.624;2022-11-04T20:57:40;12.00;1.00
3876;DHT22;1953;51.222;6.624;2022-11-04T21:02:22;12.00;1.00
3876;DHT22;1953;51.222;6.624;2022-11-04T21:07:05;12.10;1.00
3876;DHT22;1953;51.222;6.624;2022-11-04T21:11:48;12.20;1.00
3876;DHT22;1953;51.222;6.624;2022-11-04T21:16:33;12.20;1.00
3876;DHT22;1953;51.222;6.624;2022-11-04T21:21:16;12.20;1.00
3876;DHT22;1953;51.222;6.624;2022-11-04T21:26:04;12.00;1.00
3876;DHT22;1953;51.222;6.624;2022-11-04T21:30:48;11.90;1.00
3876;DHT22;1953;51.222;6.624;2022-11-04T21:35:34;11.80;1.00
3876;DHT22;1953;51.222;6.624;2022-11-04T21:40:17;12.60;1.00
3876;DHT22;1953;51.222;6.624;2022-11-04T21:44:59;11.80;1.00
3876;DHT22;1953;51.222;6.624;2022-11-04T21:49:42;11.80;1.00
3876;DHT22;1953;51.222;6.624;2022-11-04T21:54:25;11.70;1.00
3876;DHT22;1953;51.222;6.624;2022-11-04T21:59:09;11.60;1.00
3876;DHT22;1953;51.222;6.624;2022-11-04T22:03:53;11.60;1.00
3876;DHT22;1953;51.222;6.624;2022-11-04T22:08:37;11.60;1.00
3876;DHT22;1953;51.222;6.624;2022-11-04T22:13:22;11.50;1.00
3876;DHT22;1953;51.222;6.624;2022-11-04T22:18:05;11.30;1.00
3876;DHT22;1953;51.222;6.624;2022-11-04T22:22:47;11.30;1.00
3876;DHT22;1953;51.222;6.624;2022-11-04T22:27:30;11.20;1.00
3876;DHT22;1953;51.222;6.624;2022-11-04T22:32:13;11.10;1.00
3876;DHT22;1953;51.222;6.624;2022-11-04T22:36:56;11.10;1.00
3876;DHT22;1953;51.222;6.624;2022-11-04T22:41:38;11.00;1.00
3876;DHT22;1953;51.222;6.624;2022-11-04T22:46:24;11.00;1.00
3876;DHT22;1953;51.222;6.624;2022-11-04T22:51:09;10.90;1.00
3876;DHT22;1953;51.222;6.624;2022-11-04T22:55:52;10.80;1.00
3876;DHT22;1953;51.222;6.624;2022-11-04T23:00:35;10.80;1.00
3876;DHT22;1953;51.222;6.624;2022-11-04T23:05:17;10.70;1.00
3876;DHT22;1953;51.222;6.624;2022-11-04T23:10:01;10.60;1.00
3876;DHT22;1953;51.222;6.624;2022-11-04T23:15:01;10.50;1.00
3876;DHT22;1953;51.222;6.624;2022-11-04T23:20:02;10.40;1.00
3876;DHT22;1953;51.222;6.624;2022-11-04T23:24:45;10.40;1.00
3876;DHT22;1953;51.222;6.624;2022-11-04T23:29:51;10.30;1.00
3876;DHT22;1953;51.222;6.624;2022-11-04T23:34:50;10.20;1.00
3876;DHT22;1953;51.222;6.624;2022-11-04T23:39:50;10.20;1.00
3876;DHT22;1953;51.222;6.624;2022-11-04T23:44:33;10.20;1.00
3876;DHT22;1953;51.222;6.624;2022-11-04T23:49:34;10.20;1.00
3876;DHT22;1953;51.222;6.624;2022-11-04T23:54:45;10.10;1.00
3876;DHT22;1953;51.222;6.624;2022-11-04T23:59:46;10.00;1.00
